High wind

Not for real navigation. The accuracy of this data is not assured See disclaimer for more information



ICAO NAME COUNTRY WIND Kt GUST Kt VIS m TEMP/DEW C BARO METAR
KMWN Mount Washington NH United States 52 0 32767 -15/-34 29.92 KMWN 170951Z 30052KT 120SM FEW/// FEW060 M15/M34 RMK TPS LWR FEW038
ENQA 37 0 5000 7/6 29.80 ENQA 170950Z AUTO 16037KT 5000NDV -SHRA OVC004/// 07/06 Q1009 W05/S4
CYUA Shingle Point, Y. T. Canada 36 43 9999 -16/-18 30.15 CYUA 171000Z AUTO 21036G43KT ////SM FEW041 OVC048 M16/M18 A3015
ENGC Gullfax Platform Norway 35 0 5000 8/7 29.68 ENGC 170950Z 19035KT 5000 OVC008 08/07 Q1005 W07/S4
ENSF 35 0 9999 9/7 29.68 ENSF 170950Z AUTO 17035KT //// OVC008/// 09/07 Q1005 W///S4

Show more